Aloha, Oregon
Current Conditions -  °F | °C
As of 6:53 AM on Sunday 21 Dec 2014 (Local Time) from KHIO Reporting Station
Broken Clouds Broken Clouds  
Wind Chill: 11°   Ceiling: 12000
Heat Index: 11°   Visibility: 10mi
Dew Point:   Wind: 5mph
Humidity: 89%   Direction: 180°S
Pressure: 29.92"   Gusts: NA
Location:  45.49°N, 122.86°W
Report Text: KHIO 211453Z 18004KT 10SM FEW050 SCT070 BKN120 11/09 A2992 RMK AO2 RAE51 SLP132 P0000 60000 T01110094 51018
Loading
Personal Weather Stations






























Interactive Weather Map New forecast layout! Learn more

10-Day Weather Forecast

Advertisements
Track Severe Weather on mobile